Weather at Bergen Airport, Flesland

Public forecast

Using degrees Celsius for public forecast. Weather courtesy of forecast.io.

Current aviation weather report (METAR) for Bergen Airport, Flesland

Report is more than 6 hours old.

2022/11/14 15:20 (retrieved 2 years ago)

ENBR 141520Z 01006KT 5000 BR VV002 09/09 Q1016 TEMPO 0400 FG RMK WIND 1200FT 02013KT

Aviation forecast (TAF) for Bergen Airport, Flesland

Forecast is more than 12 hours old.

2023/02/22 19:30 Ammendment (retrieved 1 year ago)

AMD ENBR 2219/2318 35012KT 9999 -RA SCT008 BKN015 TEMPO 2219/2222 3000 RASN OVC006 BECMG 2302/2305 VRB05KT BECMG 2313/2315 17015KT BECMG 2315/2318 17018G28KT 3000 RASN VV009